createdAt,value
2018-12-08T00:02:11.980Z,100382.80
2018-12-08T00:06:56.282Z,100372.69
2018-12-08T00:11:42.449Z,100368.82
2018-12-08T00:16:27.632Z,100372.22
2018-12-08T00:21:12.467Z,100367.56
2018-12-08T00:25:57.812Z,100376.17
2018-12-08T00:30:52.884Z,100377.99
2018-12-08T00:35:38.842Z,100367.69
2018-12-08T00:40:23.871Z,100361.70
2018-12-08T00:45:09.054Z,100362.42
2018-12-08T00:49:53.196Z,100367.20
2018-12-08T00:54:39.165Z,100356.80
2018-12-08T01:14:32.656Z,100339.11
2018-12-08T01:19:18.619Z,100331.77
2018-12-08T01:24:03.866Z,100327.03
2018-12-08T01:28:48.489Z,100320.09
2018-12-08T01:33:34.431Z,100320.42
2018-12-08T01:38:22.176Z,100307.89
2018-12-08T01:43:07.336Z,100310.48
2018-12-08T01:47:52.454Z,100292.89
2018-12-08T01:52:37.805Z,100287.25
2018-12-08T01:57:25.743Z,100269.95
2018-12-08T02:02:11.001Z,100265.21
2018-12-08T02:06:57.983Z,100274.98
2018-12-08T02:11:43.300Z,100267.42
2018-12-08T02:16:28.050Z,100261.35
2018-12-08T02:21:13.787Z,100249.66
2018-12-08T02:25:58.400Z,100244.50
2018-12-08T02:30:44.205Z,100247.47
2018-12-08T02:35:29.973Z,100237.11
2018-12-08T02:40:15.417Z,100234.09
2018-12-08T02:44:59.648Z,100234.55
2018-12-08T02:49:45.612Z,100235.00
2018-12-08T02:54:31.006Z,100231.12
2018-12-08T02:59:15.481Z,100222.00
2018-12-08T03:04:01.224Z,100218.12
2018-12-08T03:08:45.697Z,100219.91
2018-12-08T03:13:31.955Z,100219.87
2018-12-08T03:18:17.511Z,100215.55
2018-12-08T03:23:03.199Z,100227.06
2018-12-08T03:27:49.149Z,100219.87
2018-12-08T03:32:34.438Z,100212.53
2018-12-08T03:37:19.261Z,100216.84
2018-12-08T03:42:04.699Z,100224.17
2018-12-08T03:46:49.399Z,100223.35
2018-12-08T03:51:36.568Z,100225.86
2018-12-08T03:56:21.452Z,100226.27
2018-12-08T04:01:07.152Z,100219.84
2018-12-08T04:05:51.923Z,100219.80
2018-12-08T04:10:37.424Z,100218.14
2018-12-08T04:15:21.954Z,100212.97
2018-12-08T04:20:07.745Z,100214.20
2018-12-08T04:24:52.410Z,100218.47
2018-12-08T04:29:37.782Z,100206.50
2018-12-08T04:34:25.617Z,100206.92
2018-12-08T04:39:11.040Z,100209.91
2018-12-08T04:43:56.808Z,100210.78
2018-12-08T04:48:43.010Z,100203.94
2018-12-08T04:53:27.892Z,100206.48
2018-12-08T04:58:13.581Z,100197.01
2018-12-08T05:02:58.280Z,100208.23
2018-12-08T05:07:44.973Z,100204.31
2018-12-08T05:12:29.201Z,100201.34
2018-12-08T05:17:13.981Z,100199.61
2018-12-08T05:21:59.401Z,100191.37
2018-12-08T05:26:47.263Z,100187.05
2018-12-08T05:31:33.366Z,100185.34
2018-12-08T05:36:17.957Z,100181.47
2018-12-08T05:41:03.628Z,100185.37
2018-12-08T05:45:50.084Z,100180.16
2018-12-08T05:50:35.732Z,100173.70
2018-12-08T05:55:21.836Z,100172.80
2018-12-08T06:04:50.547Z,100190.53
2018-12-08T06:09:36.485Z,100188.16
2018-12-08T06:14:21.919Z,100193.13
2018-12-08T06:19:06.640Z,100192.29
2018-12-08T06:23:52.188Z,100183.22
2018-12-08T06:28:41.007Z,100189.23
2018-12-08T06:33:26.144Z,100190.16
2018-12-08T06:38:10.480Z,100188.61
2018-12-08T06:42:56.167Z,100187.55
2018-12-08T06:47:42.420Z,100180.70
2018-12-08T06:52:27.007Z,100171.91
2018-12-08T06:57:16.326Z,100168.23
2018-12-08T07:02:02.032Z,100170.15
2018-12-08T07:06:46.707Z,100168.73
2018-12-08T07:11:32.689Z,100171.81
2018-12-08T07:16:20.148Z,100170.58
2018-12-08T07:21:06.453Z,100166.98
2018-12-08T07:25:50.780Z,100164.77
2018-12-08T07:30:36.114Z,100162.08
2018-12-08T07:35:20.897Z,100160.94
2018-12-08T07:40:06.685Z,100166.15
2018-12-08T07:44:54.752Z,100161.61
2018-12-08T07:49:40.121Z,100151.88
2018-12-08T07:54:25.276Z,100146.58
2018-12-08T07:59:10.820Z,100142.25
2018-12-08T08:03:55.068Z,100131.16
2018-12-08T08:08:39.294Z,100128.53
2018-12-08T08:13:24.213Z,100137.54
2018-12-08T08:18:09.400Z,100141.90
2018-12-08T08:22:54.350Z,100130.31
2018-12-08T08:27:39.622Z,100114.20
2018-12-08T08:32:24.105Z,100122.02
2018-12-08T08:37:09.648Z,100111.94
2018-12-08T08:41:53.834Z,100109.33
2018-12-08T08:46:43.517Z,100103.31
2018-12-08T08:51:29.185Z,100108.33
2018-12-08T08:56:14.936Z,100086.25
2018-12-08T09:01:03.018Z,100083.52
2018-12-08T09:05:47.508Z,100071.53
2018-12-08T09:10:34.944Z,100059.78
2018-12-08T09:15:23.175Z,100057.86
2018-12-08T09:20:10.997Z,100046.12
2018-12-08T09:24:55.521Z,100044.37
2018-12-08T09:29:41.703Z,100040.20
2018-12-08T09:34:29.098Z,100024.06
2018-12-08T09:39:13.775Z,100007.59
2018-12-08T09:43:59.102Z,100005.00
2018-12-08T09:48:44.385Z,100007.00
2018-12-08T09:53:28.995Z,100001.26
2018-12-08T09:58:14.077Z,99993.39
2018-12-08T10:03:01.160Z,99979.42
2018-12-08T10:07:47.090Z,99974.17
2018-12-08T10:12:32.300Z,99972.59
2018-12-08T10:17:18.285Z,99972.09
2018-12-08T10:22:06.793Z,99981.97
2018-12-08T10:26:52.711Z,99968.74
2018-12-08T10:31:38.207Z,99952.52
2018-12-08T10:36:22.834Z,99955.44
2018-12-08T10:41:09.387Z,99947.98
2018-12-08T10:45:54.184Z,99937.91
2018-12-08T10:50:39.234Z,99928.62
2018-12-08T10:55:25.123Z,99918.66
2018-12-08T11:00:15.461Z,99916.78
2018-12-08T11:04:59.679Z,99910.09
2018-12-08T11:09:43.888Z,99917.56
2018-12-08T11:14:32.625Z,99915.64
2018-12-08T11:19:19.072Z,99906.56
2018-12-08T11:24:03.198Z,99888.23
2018-12-08T11:28:47.388Z,99888.41
2018-12-08T11:33:32.237Z,99892.78
2018-12-08T11:38:18.099Z,99899.02
2018-12-08T11:43:02.341Z,99890.12
2018-12-08T11:47:46.617Z,99876.86
2018-12-08T11:52:32.528Z,99874.02
2018-12-08T11:57:18.174Z,99893.49
2018-12-08T12:02:02.261Z,99893.82
2018-12-08T12:06:46.764Z,99884.20
2018-12-08T12:11:37.295Z,99891.02
2018-12-08T12:16:22.304Z,99885.73
2018-12-08T12:21:06.539Z,99875.61
2018-12-08T12:25:53.603Z,99877.52
2018-12-08T12:30:38.856Z,99864.65
2018-12-08T12:35:23.000Z,99870.52
2018-12-08T12:40:08.989Z,99867.77
2018-12-08T12:44:54.109Z,99863.06
2018-12-08T12:49:39.557Z,99869.38
2018-12-08T12:54:25.529Z,99879.94
2018-12-08T12:59:12.358Z,99876.80
2018-12-08T13:03:57.008Z,99870.67
2018-12-08T13:08:42.319Z,99873.02
2018-12-08T13:13:27.592Z,99860.65
2018-12-08T13:18:12.763Z,99861.41
2018-12-08T13:23:01.084Z,99867.16
2018-12-08T13:27:46.625Z,99857.31
2018-12-08T13:32:31.846Z,99856.80
2018-12-08T13:37:16.316Z,99860.20
2018-12-08T13:42:01.966Z,99855.67
2018-12-08T13:46:47.141Z,99859.31
2018-12-08T13:51:32.142Z,99856.41
2018-12-08T13:56:17.925Z,99856.92
2018-12-08T14:01:02.428Z,99863.41
2018-12-08T14:05:52.273Z,99865.45
2018-12-08T14:10:38.003Z,99860.44
2018-12-08T14:15:23.445Z,99866.30
2018-12-08T14:20:19.450Z,99861.51
2018-12-08T14:25:03.670Z,99858.20
2018-12-08T14:29:48.898Z,99857.89
2018-12-08T14:34:34.889Z,99870.98
2018-12-08T14:39:19.152Z,99868.70
2018-12-08T14:44:04.074Z,99878.17
2018-12-08T14:48:49.606Z,99871.73
2018-12-08T14:53:35.492Z,99872.01
2018-12-08T14:58:20.673Z,99879.17
2018-12-08T15:03:10.944Z,99870.27
2018-12-08T15:07:55.615Z,99862.52
2018-12-08T15:12:41.570Z,99854.52
2018-12-08T15:17:26.253Z,99853.69
2018-12-08T15:22:13.021Z,99874.81
2018-12-08T15:26:57.196Z,99882.35
2018-12-08T15:31:42.359Z,99869.38
2018-12-08T15:36:27.553Z,99886.19
2018-12-08T15:41:11.728Z,99880.20
2018-12-08T15:45:57.925Z,99877.84
2018-12-08T15:50:44.601Z,99873.02
2018-12-08T15:55:29.584Z,99874.15
2018-12-08T16:00:15.863Z,99875.95
2018-12-08T16:05:00.730Z,99875.40
2018-12-08T16:09:47.423Z,99890.31
2018-12-08T16:14:32.627Z,99895.17
2018-12-08T16:19:18.276Z,99890.87
2018-12-08T16:24:02.643Z,99891.14
2018-12-08T16:28:48.969Z,99863.34
2018-12-08T16:33:36.193Z,99864.06
2018-12-08T16:38:22.157Z,99877.19
2018-12-08T16:43:07.012Z,99878.68
2018-12-08T16:47:52.475Z,99872.84
2018-12-08T16:52:38.398Z,99887.79
2018-12-08T16:57:24.361Z,99887.03
2018-12-08T17:02:08.549Z,99900.94
2018-12-08T17:06:53.639Z,99877.19
2018-12-08T17:11:38.862Z,99876.06
2018-12-08T17:16:23.179Z,99870.69
2018-12-08T17:21:09.348Z,99896.77
2018-12-08T17:26:00.937Z,99906.41
2018-12-08T17:30:45.348Z,99884.27
2018-12-08T17:35:31.486Z,99877.39
2018-12-08T17:40:15.950Z,99875.95
2018-12-08T17:45:02.666Z,99874.95
2018-12-08T17:49:47.587Z,99870.98
2018-12-08T17:54:33.594Z,99870.47
2018-12-08T17:59:19.855Z,99868.34
2018-12-08T18:04:04.647Z,99845.62
2018-12-08T18:08:50.293Z,99825.25
2018-12-08T18:13:35.545Z,99822.11
2018-12-08T18:18:20.764Z,99832.26
2018-12-08T18:23:06.167Z,99845.06
2018-12-08T18:27:51.716Z,99854.00
2018-12-08T18:32:36.383Z,99852.11
2018-12-08T18:37:21.644Z,99848.93
2018-12-08T18:42:08.629Z,99866.48
2018-12-08T18:46:53.889Z,99894.87
2018-12-08T18:51:42.485Z,99897.14
2018-12-08T18:56:27.766Z,99912.40
2018-12-08T19:01:32.295Z,99906.94
2018-12-08T19:06:18.473Z,99909.52
2018-12-08T19:11:03.150Z,99902.21
2018-12-08T19:15:55.866Z,99884.78
2018-12-08T19:20:41.487Z,99877.97
2018-12-08T19:25:26.828Z,99866.59
2018-12-08T19:30:15.515Z,99876.39
2018-12-08T19:35:01.054Z,99868.16
2018-12-08T19:39:45.477Z,99868.09
2018-12-08T19:44:31.650Z,99841.41
2018-12-08T19:49:18.191Z,99831.83
2018-12-08T19:54:03.750Z,99833.08
2018-12-08T19:58:48.279Z,99826.14
2018-12-08T20:03:33.717Z,99820.83
2018-12-08T20:08:19.993Z,99822.68
2018-12-08T20:13:06.713Z,99841.26
2018-12-08T20:17:51.021Z,99852.05
2018-12-08T20:22:36.536Z,99837.20
2018-12-08T20:27:21.483Z,99831.11
2018-12-08T20:32:07.842Z,99821.44
2018-12-08T20:36:53.046Z,99820.77
2018-12-08T20:41:43.473Z,99806.03
2018-12-08T20:46:28.686Z,99813.53
2018-12-08T20:51:13.881Z,99832.86
2018-12-08T20:55:59.193Z,99838.34
2018-12-08T21:00:44.447Z,99833.08
2018-12-08T21:05:34.095Z,99831.30
2018-12-08T21:10:18.422Z,99829.22
2018-12-08T21:15:04.049Z,99827.88
2018-12-08T21:19:48.120Z,99822.94
2018-12-08T21:24:32.731Z,99834.22
2018-12-08T21:29:18.317Z,99845.13
2018-12-08T21:34:04.017Z,99834.47
2018-12-08T21:38:53.154Z,99827.94
2018-12-08T21:43:38.325Z,99819.33
2018-12-08T21:48:23.557Z,99808.05
2018-12-08T21:53:08.951Z,99804.16
2018-12-08T21:57:56.704Z,99800.10
2018-12-08T22:02:41.384Z,99795.56
2018-12-08T22:07:27.312Z,99802.09
2018-12-08T22:12:13.845Z,99804.96
2018-12-08T22:16:58.732Z,99804.13
2018-12-08T22:21:44.478Z,99797.80
2018-12-08T22:26:29.317Z,99786.32
2018-12-08T22:31:14.415Z,99791.73
2018-12-08T22:35:58.679Z,99789.63
2018-12-08T22:40:47.463Z,99787.44
2018-12-08T22:45:31.907Z,99782.73
2018-12-08T22:50:17.651Z,99783.09
2018-12-08T22:55:04.208Z,99775.77
2018-12-08T22:59:48.485Z,99786.27
2018-12-08T23:04:34.663Z,99783.81
2018-12-08T23:09:19.853Z,99786.52
2018-12-08T23:14:06.064Z,99785.88
2018-12-08T23:18:51.345Z,99779.30
2018-12-08T23:23:36.684Z,99790.34
2018-12-08T23:28:20.943Z,99791.31
2018-12-08T23:33:05.282Z,99788.64
2018-12-08T23:37:51.006Z,99788.00
2018-12-08T23:42:37.533Z,99785.77
2018-12-08T23:47:21.830Z,99799.77
2018-12-08T23:52:11.423Z,99806.08
2018-12-08T23:56:57.137Z,99810.17
